createdAt,value
2019-01-14T00:01:50.990Z,6.70
2019-01-14T00:04:21.210Z,6.60
2019-01-14T00:06:51.447Z,6.50
2019-01-14T00:09:23.030Z,6.50
2019-01-14T00:11:53.730Z,6.50
2019-01-14T00:14:24.955Z,6.40
2019-01-14T00:16:55.548Z,6.30
2019-01-14T00:19:25.747Z,6.20
2019-01-14T00:21:55.995Z,6.10
2019-01-14T00:24:26.135Z,6.10
2019-01-14T00:26:56.332Z,6.10
2019-01-14T00:29:26.474Z,6.20
2019-01-14T00:31:56.724Z,6.20
2019-01-14T00:34:27.563Z,6.30
2019-01-14T00:36:57.835Z,6.20
2019-01-14T00:39:28.004Z,6.30
2019-01-14T00:41:58.204Z,6.30
2019-01-14T00:44:28.311Z,6.20
2019-01-14T00:46:58.555Z,6.30
2019-01-14T00:49:28.868Z,6.30
2019-01-14T00:51:59.082Z,6.40
2019-01-14T00:54:29.226Z,6.40
2019-01-14T00:56:59.285Z,6.40
2019-01-14T00:59:29.791Z,6.40
2019-01-14T01:01:59.892Z,6.40
2019-01-14T01:04:30.129Z,6.40
2019-01-14T01:07:00.271Z,6.40
2019-01-14T01:09:30.525Z,6.30
2019-01-14T01:12:01.100Z,6.20
2019-01-14T01:14:31.343Z,6.20
2019-01-14T01:17:01.451Z,6.10
2019-01-14T01:19:31.659Z,6.00
2019-01-14T01:22:02.976Z,6.00
2019-01-14T01:24:33.331Z,6.00
2019-01-14T01:27:03.661Z,6.00
2019-01-14T01:29:34.606Z,5.90
2019-01-14T01:32:05.835Z,6.00
2019-01-14T01:34:36.113Z,6.10
2019-01-14T01:37:06.219Z,6.10
2019-01-14T01:39:36.440Z,6.10
2019-01-14T01:42:06.650Z,6.20
2019-01-14T01:44:37.170Z,6.20
2019-01-14T01:47:07.273Z,6.30
2019-01-14T01:49:37.459Z,6.30
2019-01-14T01:52:07.625Z,6.40
2019-01-14T01:54:37.856Z,6.50
2019-01-14T01:57:08.053Z,6.50
2019-01-14T01:59:38.165Z,6.50
2019-01-14T02:02:08.298Z,6.50
2019-01-14T02:04:38.516Z,6.50
2019-01-14T02:07:08.623Z,6.50
2019-01-14T02:09:38.776Z,6.50
2019-01-14T02:12:08.927Z,6.50
2019-01-14T02:14:39.341Z,6.50
2019-01-14T02:17:09.952Z,6.60
2019-01-14T02:19:40.187Z,6.60
2019-01-14T02:22:10.410Z,6.60
2019-01-14T02:24:40.527Z,6.60
2019-01-14T02:27:10.733Z,6.60
2019-01-14T02:29:40.897Z,6.60
2019-01-14T02:32:11.139Z,6.60
2019-01-14T02:34:41.360Z,6.60
2019-01-14T02:37:11.621Z,6.70
2019-01-14T02:39:41.813Z,6.70
2019-01-14T02:42:11.931Z,6.80
2019-01-14T02:44:42.417Z,6.70
2019-01-14T02:47:12.642Z,6.80
2019-01-14T02:49:42.937Z,6.80
2019-01-14T02:52:13.171Z,6.80
2019-01-14T02:54:43.304Z,6.90
2019-01-14T02:57:13.542Z,6.90
2019-01-14T02:59:43.671Z,6.90
2019-01-14T03:02:14.245Z,6.90
2019-01-14T03:04:44.447Z,6.90
2019-01-14T03:07:15.646Z,7.00
2019-01-14T03:09:45.763Z,7.00
2019-01-14T03:12:15.904Z,7.00
2019-01-14T03:14:46.471Z,7.00
2019-01-14T03:17:16.619Z,7.00
2019-01-14T03:19:48.507Z,7.00
2019-01-14T03:22:18.655Z,7.00
2019-01-14T03:24:48.742Z,7.10
2019-01-14T03:27:18.904Z,7.00
2019-01-14T03:29:52.057Z,7.00
2019-01-14T03:32:22.235Z,7.00
2019-01-14T03:34:52.313Z,6.90
2019-01-14T03:37:22.434Z,6.90
2019-01-14T03:39:52.672Z,7.00
2019-01-14T03:42:22.981Z,7.00
2019-01-14T03:44:53.141Z,7.00
2019-01-14T03:47:23.664Z,7.00
2019-01-14T03:49:53.930Z,6.90
2019-01-14T03:52:24.133Z,6.90
2019-01-14T03:54:54.294Z,6.90
2019-01-14T03:57:24.484Z,6.90
2019-01-14T03:59:54.756Z,6.90
2019-01-14T04:02:25.007Z,6.90
2019-01-14T04:04:55.212Z,6.80
2019-01-14T04:07:25.367Z,6.80
2019-01-14T04:09:56.695Z,6.80
2019-01-14T04:12:26.919Z,6.80
2019-01-14T04:14:57.683Z,6.80
2019-01-14T04:17:27.914Z,6.80
2019-01-14T04:19:58.158Z,6.70
2019-01-14T04:22:28.383Z,6.70
2019-01-14T04:24:58.661Z,6.70
2019-01-14T04:27:28.770Z,6.70
2019-01-14T04:29:59.009Z,6.70
2019-01-14T04:32:29.262Z,6.70
2019-01-14T04:34:59.468Z,6.80
2019-01-14T04:37:29.690Z,6.80
2019-01-14T04:39:59.882Z,6.80
2019-01-14T04:42:30.035Z,6.80
2019-01-14T04:45:00.242Z,6.70
2019-01-14T04:47:30.439Z,6.80
2019-01-14T04:50:00.949Z,6.70
2019-01-14T04:52:31.043Z,6.70
2019-01-14T04:55:01.270Z,6.70
2019-01-14T04:57:31.602Z,6.70
2019-01-14T05:00:01.738Z,6.60
2019-01-14T05:02:32.042Z,6.60
2019-01-14T05:05:02.237Z,6.60
2019-01-14T05:07:32.463Z,6.50
2019-01-14T05:10:03.146Z,6.50
2019-01-14T05:12:33.369Z,6.60
2019-01-14T05:15:03.875Z,6.60
2019-01-14T05:17:34.171Z,6.60
2019-01-14T05:20:05.298Z,6.50
2019-01-14T05:22:35.566Z,6.40
2019-01-14T05:25:06.350Z,6.40
2019-01-14T05:27:36.598Z,6.40
2019-01-14T05:30:07.507Z,6.30
2019-01-14T05:32:37.647Z,6.30
2019-01-14T05:35:07.932Z,6.30
2019-01-14T05:37:38.218Z,6.40
2019-01-14T05:40:26.945Z,6.40
2019-01-14T05:42:57.088Z,6.40
2019-01-14T05:45:27.348Z,6.40
2019-01-14T05:47:57.835Z,6.40
2019-01-14T05:50:27.977Z,6.40
2019-01-14T05:52:58.161Z,6.50
2019-01-14T05:55:28.327Z,6.50
2019-01-14T05:57:58.503Z,6.40
2019-01-14T06:00:37.110Z,6.50
2019-01-14T06:03:07.297Z,6.40
2019-01-14T06:05:37.398Z,6.40
2019-01-14T06:08:07.636Z,6.40
2019-01-14T06:10:37.852Z,6.50
2019-01-14T06:13:07.975Z,6.50
2019-01-14T06:15:38.141Z,6.50
2019-01-14T06:18:08.282Z,6.50
2019-01-14T06:20:38.554Z,6.50
2019-01-14T06:23:08.787Z,6.50
2019-01-14T06:25:39.055Z,6.50
2019-01-14T06:28:09.209Z,6.50
2019-01-14T06:30:39.423Z,6.50
2019-01-14T06:33:10.022Z,6.40
2019-01-14T06:35:40.234Z,6.40
2019-01-14T06:38:10.293Z,6.40
2019-01-14T06:40:40.578Z,6.40
2019-01-14T06:43:10.698Z,6.30
2019-01-14T06:45:40.804Z,6.10
2019-01-14T06:48:10.928Z,6.00
2019-01-14T06:50:41.388Z,6.00
2019-01-14T06:53:11.628Z,5.90
2019-01-14T06:55:41.775Z,5.90
2019-01-14T06:58:11.298Z,5.80
2019-01-14T07:00:41.506Z,5.70
2019-01-14T07:03:11.568Z,5.70
2019-01-14T07:05:41.667Z,5.70
2019-01-14T07:08:11.862Z,5.70
2019-01-14T07:10:42.055Z,5.60
2019-01-14T07:13:12.338Z,5.50
2019-01-14T07:15:42.618Z,5.50
2019-01-14T07:18:12.850Z,5.50
2019-01-14T07:20:43.038Z,5.40
2019-01-14T07:23:13.309Z,5.40
2019-01-14T07:25:43.498Z,5.40
2019-01-14T07:28:13.724Z,5.40
2019-01-14T07:30:43.939Z,5.40
2019-01-14T07:33:15.248Z,5.40
2019-01-14T07:35:45.395Z,5.40
2019-01-14T07:38:15.515Z,5.50
2019-01-14T07:40:45.721Z,5.50
2019-01-14T07:43:15.936Z,5.50
2019-01-14T07:45:46.062Z,5.40
2019-01-14T07:48:16.225Z,5.50
2019-01-14T07:50:46.419Z,5.50
2019-01-14T07:53:17.656Z,5.50
2019-01-14T07:55:47.746Z,5.50
2019-01-14T07:58:17.970Z,5.60
2019-01-14T08:00:48.021Z,5.60
2019-01-14T08:03:18.146Z,5.60
2019-01-14T08:05:48.318Z,5.50
2019-01-14T08:08:18.478Z,5.60
2019-01-14T08:10:48.675Z,5.50
2019-01-14T08:13:18.904Z,5.50
2019-01-14T08:15:49.096Z,5.50
2019-01-14T08:18:19.212Z,5.40
2019-01-14T08:20:49.416Z,5.40
2019-01-14T08:23:19.709Z,5.40
2019-01-14T08:25:49.910Z,5.40
2019-01-14T08:28:20.059Z,5.40
2019-01-14T08:30:50.269Z,5.40
2019-01-14T08:33:20.371Z,5.50
2019-01-14T08:35:50.491Z,5.50
2019-01-14T08:38:21.344Z,5.50
2019-01-14T08:40:51.702Z,5.50
2019-01-14T08:43:22.057Z,5.60
2019-01-14T08:45:52.596Z,5.50
2019-01-14T08:48:22.586Z,5.50
2019-01-14T08:50:52.546Z,5.60
2019-01-14T08:53:22.617Z,5.70
2019-01-14T08:55:52.689Z,5.70
2019-01-14T08:58:22.988Z,5.80
2019-01-14T09:00:52.954Z,5.70
2019-01-14T09:03:22.952Z,5.80
2019-01-14T09:05:52.930Z,5.80
2019-01-14T09:08:28.604Z,5.80
2019-01-14T09:10:55.004Z,5.80
2019-01-14T09:13:25.005Z,5.80
2019-01-14T09:15:55.032Z,5.80
2019-01-14T09:18:25.022Z,5.70
2019-01-14T09:20:55.042Z,5.70
2019-01-14T09:23:25.100Z,5.80
2019-01-14T09:25:55.133Z,6.00
2019-01-14T09:28:25.255Z,6.10
2019-01-14T09:30:55.280Z,6.20
2019-01-14T09:33:25.222Z,6.40
2019-01-14T09:35:55.220Z,6.40
2019-01-14T09:38:25.217Z,6.30
2019-01-14T09:40:55.186Z,6.30
2019-01-14T09:43:25.239Z,6.40
2019-01-14T09:45:55.235Z,6.50
2019-01-14T09:48:25.257Z,6.50
2019-01-14T09:50:55.319Z,6.50
2019-01-14T09:53:25.322Z,6.40
2019-01-14T09:55:55.326Z,6.30
2019-01-14T09:58:25.347Z,6.10
2019-01-14T10:00:55.325Z,6.10
2019-01-14T10:03:25.331Z,6.10
2019-01-14T10:05:55.342Z,6.30
2019-01-14T10:08:25.334Z,6.60
2019-01-14T10:10:55.379Z,7.00
2019-01-14T10:13:25.342Z,7.20
2019-01-14T10:15:55.645Z,7.50
2019-01-14T10:18:25.763Z,7.50
2019-01-14T10:20:55.917Z,7.40
2019-01-14T10:23:25.897Z,6.90
2019-01-14T10:25:56.440Z,6.50
2019-01-14T10:28:26.440Z,6.20
2019-01-14T10:30:56.747Z,6.10
2019-01-14T10:33:26.781Z,6.30
2019-01-14T10:35:56.801Z,6.60
2019-01-14T10:38:26.760Z,6.80
2019-01-14T10:40:56.768Z,6.90
2019-01-14T10:43:26.761Z,6.90
2019-01-14T10:45:56.744Z,6.80
2019-01-14T10:48:26.748Z,6.70
2019-01-14T10:50:57.074Z,6.80
2019-01-14T10:53:27.245Z,7.40
2019-01-14T10:55:57.323Z,8.00
2019-01-14T10:58:27.508Z,8.40
2019-01-14T11:00:57.671Z,8.30
2019-01-14T11:03:27.894Z,8.00
2019-01-14T11:05:58.972Z,7.90
2019-01-14T11:08:29.168Z,7.80
2019-01-14T11:10:59.377Z,8.30
2019-01-14T11:13:29.513Z,9.40
2019-01-14T11:15:59.758Z,10.30
2019-01-14T11:18:29.944Z,10.50
2019-01-14T11:21:00.196Z,10.40
2019-01-14T11:23:31.231Z,10.50
2019-01-14T11:26:01.455Z,9.70
2019-01-14T11:28:31.722Z,9.30
2019-01-14T11:31:06.600Z,9.40
2019-01-14T11:33:40.726Z,9.70
2019-01-14T11:36:10.894Z,10.00
2019-01-14T11:38:43.431Z,10.60
2019-01-14T11:41:14.006Z,11.00
2019-01-14T11:43:44.102Z,11.00
2019-01-14T11:46:14.647Z,11.10
2019-01-14T11:48:44.897Z,10.90
2019-01-14T11:51:14.951Z,10.70
2019-01-14T11:53:45.195Z,10.90
2019-01-14T11:56:15.358Z,11.10
2019-01-14T11:58:45.533Z,10.90
2019-01-14T12:01:15.594Z,10.20
2019-01-14T12:03:45.820Z,9.70
2019-01-14T12:06:15.955Z,9.40
2019-01-14T12:08:46.059Z,9.20
2019-01-14T12:11:16.257Z,9.60
2019-01-14T12:13:46.696Z,10.20
2019-01-14T12:16:16.938Z,10.40
2019-01-14T12:18:47.083Z,10.30
2019-01-14T12:21:17.335Z,10.30
2019-01-14T12:23:47.446Z,9.90
2019-01-14T12:26:17.634Z,9.50
2019-01-14T12:28:47.823Z,9.70
2019-01-14T12:31:18.061Z,10.50
2019-01-14T12:33:48.195Z,10.00
2019-01-14T12:36:18.412Z,9.40
2019-01-14T12:38:48.558Z,8.40
2019-01-14T12:41:18.643Z,7.40
2019-01-14T12:43:48.889Z,6.50
2019-01-14T12:46:19.118Z,5.70
2019-01-14T12:48:49.321Z,5.40
2019-01-14T12:51:19.563Z,5.20
2019-01-14T12:53:49.696Z,5.10
2019-01-14T12:56:19.836Z,5.10
2019-01-14T12:58:50.036Z,5.20
2019-01-14T13:01:20.187Z,5.40
2019-01-14T13:03:50.395Z,5.60
2019-01-14T13:06:20.578Z,6.80
2019-01-14T13:08:50.747Z,8.00
2019-01-14T13:11:23.258Z,9.70
2019-01-14T13:13:52.721Z,10.60
2019-01-14T13:16:22.893Z,10.40
2019-01-14T13:18:53.410Z,9.30
2019-01-14T13:21:23.579Z,8.30
2019-01-14T13:23:53.773Z,7.90
2019-01-14T13:26:24.038Z,7.40
2019-01-14T13:28:54.090Z,7.80
2019-01-14T13:31:24.256Z,8.90
2019-01-14T13:33:54.447Z,9.80
2019-01-14T13:36:24.713Z,10.70
2019-01-14T13:38:54.882Z,11.00
2019-01-14T13:41:25.087Z,11.20
2019-01-14T13:43:55.279Z,11.30
2019-01-14T13:46:26.304Z,10.90
2019-01-14T13:48:56.649Z,11.20
2019-01-14T13:51:26.901Z,12.10
2019-01-14T13:53:57.141Z,11.70
2019-01-14T13:56:27.285Z,11.40
2019-01-14T13:58:57.858Z,10.30
2019-01-14T14:01:28.313Z,9.40
2019-01-14T14:03:58.563Z,8.40
2019-01-14T14:06:28.684Z,8.00
2019-01-14T14:08:58.859Z,7.40
2019-01-14T14:11:28.931Z,7.20
2019-01-14T14:13:59.145Z,6.90
2019-01-14T14:16:29.321Z,6.70
2019-01-14T14:18:59.968Z,6.60
2019-01-14T14:21:30.177Z,6.60
2019-01-14T14:24:00.508Z,6.60
2019-01-14T14:26:30.720Z,6.60
2019-01-14T14:29:00.884Z,6.80
2019-01-14T14:31:32.120Z,6.90
2019-01-14T14:34:02.353Z,7.00
2019-01-14T14:36:32.609Z,7.00
2019-01-14T14:39:02.814Z,6.70
2019-01-14T14:41:33.725Z,6.50
2019-01-14T14:44:04.049Z,6.30
2019-01-14T14:46:34.233Z,6.30
2019-01-14T14:49:04.444Z,6.20
2019-01-14T14:51:34.654Z,6.00
2019-01-14T14:54:04.984Z,6.00
2019-01-14T14:56:35.106Z,6.00
2019-01-14T14:59:05.234Z,5.90
2019-01-14T15:01:35.460Z,5.90
2019-01-14T15:04:05.666Z,5.90
2019-01-14T15:06:35.920Z,5.80
2019-01-14T15:09:08.754Z,5.80
2019-01-14T15:15:46.911Z,5.50
2019-01-14T15:18:17.077Z,5.30
2019-01-14T15:20:47.231Z,5.10
2019-01-14T15:23:17.466Z,5.10
2019-01-14T15:25:47.679Z,5.00
2019-01-14T15:28:17.965Z,4.90
2019-01-14T15:30:48.217Z,4.80
2019-01-14T15:33:19.634Z,4.70
2019-01-14T15:35:49.900Z,4.60
2019-01-14T15:38:20.347Z,4.60
2019-01-14T15:40:50.618Z,4.60
2019-01-14T15:43:20.842Z,4.50
2019-01-14T15:45:51.087Z,4.40
2019-01-14T15:48:21.267Z,4.30
2019-01-14T15:50:51.531Z,4.30
2019-01-14T15:53:21.657Z,4.30
2019-01-14T15:55:51.904Z,4.20
2019-01-14T15:58:22.305Z,4.20
2019-01-14T16:00:52.425Z,4.10
2019-01-14T16:03:22.588Z,4.10
2019-01-14T16:05:52.822Z,4.10
2019-01-14T16:08:23.043Z,4.10
2019-01-14T16:10:53.224Z,4.20
2019-01-14T16:13:23.318Z,4.20
2019-01-14T16:15:53.483Z,4.30
2019-01-14T16:18:23.647Z,4.30
2019-01-14T16:20:53.829Z,4.30
2019-01-14T16:23:23.984Z,4.20
2019-01-14T16:25:54.112Z,4.10
2019-01-14T16:28:24.266Z,4.10
2019-01-14T16:30:54.475Z,4.00
2019-01-14T16:33:24.676Z,4.00
2019-01-14T16:35:54.878Z,4.00
2019-01-14T16:38:25.090Z,4.00
2019-01-14T16:40:55.168Z,4.00
2019-01-14T16:43:25.307Z,3.90
2019-01-14T16:45:55.497Z,3.80
2019-01-14T16:48:25.683Z,3.70
2019-01-14T16:50:55.843Z,3.60
2019-01-14T16:53:26.097Z,3.60
2019-01-14T16:55:57.190Z,3.60
2019-01-14T16:58:27.466Z,3.70
2019-01-14T17:00:57.602Z,3.70
2019-01-14T17:03:27.946Z,3.70
2019-01-14T17:05:58.024Z,3.60
2019-01-14T17:08:28.234Z,3.60
2019-01-14T17:10:58.447Z,3.50
2019-01-14T17:13:28.691Z,3.40
2019-01-14T17:15:59.822Z,3.50
2019-01-14T17:18:30.014Z,3.50
2019-01-14T17:21:00.274Z,3.50
2019-01-14T17:23:30.599Z,3.50
2019-01-14T17:26:00.907Z,3.50
2019-01-14T17:28:31.197Z,3.40
2019-01-14T17:31:01.434Z,3.30
2019-01-14T17:33:31.658Z,3.30
2019-01-14T17:36:01.935Z,3.30
2019-01-14T17:38:32.328Z,3.40
2019-01-14T17:41:02.446Z,3.60
2019-01-14T17:43:32.723Z,3.60
2019-01-14T17:46:02.953Z,3.70
2019-01-14T17:48:33.424Z,3.80
2019-01-14T17:51:03.887Z,3.80
2019-01-14T17:53:35.145Z,3.90
2019-01-14T17:56:05.439Z,3.90
2019-01-14T17:58:36.838Z,4.00
2019-01-14T18:01:07.043Z,4.00
2019-01-14T18:03:37.307Z,4.00
2019-01-14T18:06:07.570Z,4.10
2019-01-14T18:08:37.844Z,4.10
2019-01-14T18:11:08.121Z,4.10
2019-01-14T18:13:38.298Z,4.20
2019-01-14T18:16:08.530Z,4.20
2019-01-14T18:18:38.849Z,4.20
2019-01-14T18:21:13.810Z,4.10
2019-01-14T18:23:40.952Z,4.00
2019-01-14T18:26:11.041Z,4.00
2019-01-14T18:28:43.342Z,4.00
2019-01-14T18:31:13.551Z,3.90
2019-01-14T18:33:44.146Z,3.90
2019-01-14T18:36:14.427Z,3.90
2019-01-14T18:38:44.798Z,3.90
2019-01-14T18:41:14.939Z,3.90
2019-01-14T18:43:45.116Z,3.90
2019-01-14T18:46:15.268Z,3.90
2019-01-14T18:48:45.518Z,4.00
2019-01-14T18:51:16.099Z,4.00
2019-01-14T18:53:46.361Z,4.00
2019-01-14T18:56:16.516Z,4.10
2019-01-14T18:58:46.758Z,4.10
2019-01-14T19:01:17.000Z,4.10
2019-01-14T19:03:47.849Z,4.10
2019-01-14T19:06:18.007Z,4.10
2019-01-14T19:08:48.250Z,4.00
2019-01-14T19:11:18.385Z,3.90
2019-01-14T19:13:48.615Z,3.70
2019-01-14T19:16:18.831Z,3.60
2019-01-14T19:18:49.079Z,3.50
2019-01-14T19:21:19.286Z,3.60
2019-01-14T19:23:49.447Z,3.60
2019-01-14T19:26:19.655Z,3.70
2019-01-14T19:28:49.950Z,3.70
2019-01-14T19:31:20.235Z,3.70
2019-01-14T19:33:51.280Z,3.70
2019-01-14T19:36:21.555Z,3.70
2019-01-14T19:38:51.866Z,3.70
2019-01-14T19:41:22.043Z,3.80
2019-01-14T19:43:52.326Z,3.80
2019-01-14T19:46:22.904Z,3.80
2019-01-14T19:48:53.346Z,3.90
2019-01-14T19:51:24.052Z,3.80
2019-01-14T19:53:54.627Z,3.90
2019-01-14T19:56:24.839Z,3.90
2019-01-14T19:58:55.102Z,3.90
2019-01-14T20:01:25.351Z,3.90
2019-01-14T20:03:56.108Z,3.90
2019-01-14T20:06:26.281Z,3.80
2019-01-14T20:08:56.602Z,3.90
2019-01-14T20:11:26.799Z,3.90
2019-01-14T20:13:57.135Z,3.90
2019-01-14T20:16:27.410Z,3.90
2019-01-14T20:18:58.140Z,3.80
2019-01-14T20:21:28.734Z,3.80
2019-01-14T20:23:59.025Z,3.80
2019-01-14T20:26:29.310Z,3.80
2019-01-14T20:28:59.636Z,3.90
2019-01-14T20:31:29.933Z,3.90
2019-01-14T20:34:00.193Z,3.90
2019-01-14T20:36:30.729Z,3.80
2019-01-14T20:39:01.042Z,3.80
2019-01-14T20:41:32.841Z,3.70
2019-01-14T20:44:05.263Z,3.80
2019-01-14T20:46:35.040Z,3.80
2019-01-14T20:49:05.467Z,3.70
2019-01-14T20:51:35.691Z,3.70
2019-01-14T20:54:05.807Z,3.80
2019-01-14T20:56:35.928Z,3.80
2019-01-14T20:59:06.141Z,3.80
2019-01-14T21:01:36.247Z,3.80
2019-01-14T21:04:06.501Z,3.70
2019-01-14T21:06:36.702Z,3.60
2019-01-14T21:09:07.783Z,3.50
2019-01-14T21:11:38.067Z,3.50
2019-01-14T21:14:08.270Z,3.40
2019-01-14T21:16:38.506Z,3.30
2019-01-14T21:19:08.713Z,3.20
2019-01-14T21:21:38.903Z,3.10
2019-01-14T21:24:09.152Z,3.10
2019-01-14T21:26:39.692Z,3.00
2019-01-14T21:29:10.055Z,2.90
2019-01-14T21:31:40.203Z,2.80
2019-01-14T21:34:10.814Z,2.80
2019-01-14T21:36:41.010Z,2.90
2019-01-14T21:39:12.383Z,2.80
2019-01-14T21:41:42.719Z,2.70
2019-01-14T21:44:12.918Z,2.70
2019-01-14T21:46:43.170Z,2.70
2019-01-14T21:49:13.363Z,2.60
2019-01-14T21:51:43.564Z,2.60
2019-01-14T21:54:13.702Z,2.70
2019-01-14T21:56:43.973Z,2.70
2019-01-14T21:59:14.136Z,2.70
2019-01-14T22:01:44.385Z,2.70
2019-01-14T22:04:14.633Z,2.60
2019-01-14T22:06:45.091Z,2.70
2019-01-14T22:09:15.179Z,2.60
2019-01-14T22:11:45.469Z,2.60
2019-01-14T22:14:15.665Z,2.50
2019-01-14T22:16:45.928Z,2.40
2019-01-14T22:19:16.121Z,2.40
2019-01-14T22:21:46.344Z,2.40
2019-01-14T22:24:16.518Z,2.30
2019-01-14T22:26:46.489Z,2.30
2019-01-14T22:29:16.506Z,2.30
2019-01-14T22:31:46.515Z,2.30
2019-01-14T22:34:16.580Z,2.30
2019-01-14T22:36:46.610Z,2.30
2019-01-14T22:39:16.598Z,2.20
2019-01-14T22:41:46.727Z,2.30
2019-01-14T22:44:16.705Z,2.30
2019-01-14T22:46:46.961Z,2.30
2019-01-14T22:49:17.146Z,2.30
2019-01-14T22:51:47.276Z,2.30
2019-01-14T22:54:17.347Z,2.40
2019-01-14T22:56:47.584Z,2.50
2019-01-14T22:59:17.714Z,2.50
2019-01-14T23:01:50.367Z,2.50
2019-01-14T23:04:20.728Z,2.40
2019-01-14T23:06:50.839Z,2.30
2019-01-14T23:09:21.423Z,2.30
2019-01-14T23:11:53.154Z,2.30
2019-01-14T23:14:23.604Z,2.30
2019-01-14T23:16:54.931Z,2.20
2019-01-14T23:19:26.113Z,2.20
2019-01-14T23:21:56.243Z,2.10
2019-01-14T23:24:26.441Z,2.10
2019-01-14T23:26:56.651Z,2.00
2019-01-14T23:29:26.908Z,2.00
2019-01-14T23:31:57.158Z,2.00
2019-01-14T23:34:27.361Z,2.00
2019-01-14T23:36:57.452Z,2.00
2019-01-14T23:39:27.586Z,2.00
2019-01-14T23:42:00.460Z,2.00
2019-01-14T23:44:29.623Z,2.00
2019-01-14T23:46:59.726Z,1.90
2019-01-14T23:49:29.882Z,1.90
2019-01-14T23:51:59.991Z,1.80
2019-01-14T23:54:36.754Z,1.80
2019-01-14T23:57:02.356Z,1.80
2019-01-14T23:59:32.672Z,1.80
